Time;durP1;ratioP1;P1;durP2;ratioP2;P2;SDS_P1;SDS_P2;PMS_P1;PMS_P2;Temp;Humidity;BMP_temperature;BMP_pressure;BME280_temperature;BME280_humidity;BME280_pressure;Samples;Min_cycle;Max_cycle;Signal;HPM_P1;HPM_P2
2023/04/24 00:02:10;;;;;;;4.85;3.08;;;10.80;99.90;;;;;;5046635;28;20079;-76
2023/04/24 00:05:13;;;;;;;6.15;3.72;;;10.80;99.90;;;;;;5131999;27;20087;-75
2023/04/24 00:07:48;;;;;;;5.03;2.90;;;10.70;99.90;;;;;;5129589;27;20049;-76
2023/04/24 00:10:26;;;;;;;3.70;2.45;;;10.80;99.90;;;;;;5056061;28;20064;-76
2023/04/24 00:12:56;;;;;;;4.85;2.85;;;11.40;99.90;;;;;;5086144;28;20390;-76
2023/04/24 00:15:37;;;;;;;3.17;2.30;;;10.70;99.90;;;;;;5071894;28;20109;-78
2023/04/24 00:18:28;;;;;;;3.97;2.20;;;10.70;99.90;;;;;;5031688;28;20068;-78
2023/04/24 00:21:33;;;;;;;3.70;2.05;;;10.80;99.90;;;;;;5027674;28;20103;-76
2023/04/24 00:24:18;;;;;;;3.20;2.00;;;10.30;99.90;;;;;;5033449;28;20061;-76
2023/04/24 00:27:11;;;;;;;3.28;1.90;;;10.70;99.90;;;;;;5020620;28;20059;-75
2023/04/24 00:29:48;;;;;;;5.78;1.92;;;10.70;99.90;;;;;;5026644;28;20144;-74
2023/04/24 00:32:36;;;;;;;4.75;2.20;;;10.70;99.90;;;;;;5036678;28;20164;-75
2023/04/24 00:35:21;;;;;;;4.63;2.08;;;10.80;99.90;;;;;;4983246;28;20052;-75
2023/04/24 00:38:35;;;;;;;4.25;2.22;;;10.80;99.90;;;;;;5030524;28;20064;-76
2023/04/24 00:41:55;;;;;;;4.93;2.53;;;10.70;99.90;;;;;;5067291;28;20051;-75
2023/04/24 00:44:34;;;;;;;5.20;3.08;;;10.70;99.90;;;;;;5082594;27;20634;-76
2023/04/24 00:47:24;;;;;;;5.90;2.80;;;10.70;99.90;;;;;;5063654;27;20146;-74
2023/04/24 00:50:05;;;;;;;5.22;3.58;;;10.70;99.90;;;;;;5113127;27;20130;-77
2023/04/24 00:52:51;;;;;;;6.32;3.90;;;10.80;99.90;;;;;;5136931;27;20042;-75
2023/04/24 00:55:29;;;;;;;6.50;4.00;;;10.70;99.90;;;;;;5093175;28;20116;-75
2023/04/24 00:58:43;;;;;;;5.85;3.70;;;10.70;99.90;;;;;;5093152;27;20046;-76
2023/04/24 01:01:51;;;;;;;4.97;2.95;;;10.70;99.90;;;;;;5091409;27;20600;-77
2023/04/24 01:05:11;;;;;;;5.45;2.83;;;10.70;99.90;;;;;;5092650;27;20051;-75
2023/04/24 01:08:22;;;;;;;7.03;2.50;;;10.70;99.90;;;;;;5067416;27;20047;-76
2023/04/24 01:11:04;;;;;;;4.25;2.40;;;10.70;99.90;;;;;;5073993;28;20059;-76
2023/04/24 01:13:44;;;;;;;2.67;1.98;;;10.70;99.90;;;;;;5027835;28;20060;-77
2023/04/24 01:16:29;;;;;;;4.07;2.05;;;10.70;99.90;;;;;;5017007;28;20049;-76
2023/04/24 01:19:44;;;;;;;4.10;1.80;;;10.70;99.90;;;;;;5040717;28;20053;-75
2023/04/24 01:22:37;;;;;;;5.05;2.08;;;10.70;99.90;;;;;;5011604;28;20179;-75
2023/04/24 01:25:21;;;;;;;4.90;1.83;;;10.60;99.90;;;;;;5014104;28;20526;-75
2023/04/24 01:28:20;;;;;;;5.03;2.00;;;10.60;99.90;;;;;;5078390;28;20047;-76
2023/04/24 01:30:54;;;;;;;4.30;1.90;;;10.60;99.90;;;;;;5094078;28;20062;-75
2023/04/24 01:33:36;;;;;;;3.78;2.25;;;12.00;99.90;;;;;;5049561;28;20132;-75
2023/04/24 01:36:32;;;;;;;6.32;3.03;;;10.60;99.90;;;;;;5048985;28;20052;-75
2023/04/24 01:39:16;;;;;;;6.60;2.70;;;10.60;99.90;;;;;;5025041;28;20163;-74
2023/04/24 01:42:34;;;;;;;4.25;2.45;;;10.60;99.90;;;;;;5053931;28;20052;-76
2023/04/24 01:46:13;;;;;;;4.88;2.10;;;10.60;99.90;;;;;;5014120;28;20053;-77
2023/04/24 01:48:50;;;;;;;4.93;2.42;;;10.60;99.90;;;;;;5012930;28;20091;-77
2023/04/24 01:51:44;;;;;;;4.75;1.95;;;10.50;99.90;;;;;;5026763;28;20052;-75
2023/04/24 01:57:17;;;;;;;6.40;2.10;;;10.50;99.90;;;;;;5044269;28;20060;-75
2023/04/24 02:00:22;;;;;;;4.15;2.05;;;10.50;99.90;;;;;;5003132;28;20561;-74
2023/04/24 02:03:01;;;;;;;3.35;2.10;;;10.50;99.90;;;;;;5045812;28;20103;-75
2023/04/24 02:06:15;;;;;;;3.72;1.98;;;10.50;99.90;;;;;;5018735;28;20067;-75
2023/04/24 02:09:11;;;;;;;2.80;2.15;;;9.50;99.90;;;;;;5056670;28;20071;-76
2023/04/24 02:12:05;;;;;;;3.97;2.15;;;10.50;99.90;;;;;;5042388;28;20579;-75
2023/04/24 02:14:35;;;;;;;3.88;2.03;;;10.40;99.90;;;;;;5054491;28;20152;-76
2023/04/24 02:17:16;;;;;;;4.13;2.38;;;10.40;99.90;;;;;;5081109;27;20046;-75
2023/04/24 02:20:03;;;;;;;4.20;2.70;;;10.40;99.90;;;;;;5099305;27;20054;-76
2023/04/24 02:23:06;;;;;;;5.10;2.72;;;10.30;99.90;;;;;;5149781;27;20056;-74
2023/04/24 02:25:53;;;;;;;4.88;2.35;;;10.30;99.90;;;;;;5113966;27;20078;-74
2023/04/24 02:29:01;;;;;;;5.03;3.13;;;10.30;99.90;;;;;;5138857;27;20041;-79
2023/04/24 02:31:59;;;;;;;4.87;3.73;;;10.30;99.90;;;;;;5096472;27;20055;-75
2023/04/24 02:38:35;;;;;;;7.63;4.80;;;10.20;99.90;;;;;;5036485;28;20503;-76
2023/04/24 02:41:23;;;;;;;5.68;3.70;;;10.20;99.90;;;;;;5046897;28;20094;-78
2023/04/24 02:44:33;;;;;;;6.18;3.60;;;10.20;99.90;;;;;;5049446;28;20367;-77
2023/04/24 02:47:07;;;;;;;5.47;3.33;;;10.20;99.90;;;;;;5036485;28;20496;-77
2023/04/24 02:49:41;;;;;;;4.65;2.80;;;10.20;99.90;;;;;;4992788;28;20061;-76
2023/04/24 02:52:46;;;;;;;3.22;2.20;;;10.20;99.90;;;;;;5010353;28;20095;-74
2023/04/24 02:55:37;;;;;;;4.10;2.33;;;10.20;99.90;;;;;;4933712;28;20093;-74
2023/04/24 02:58:20;;;;;;;3.60;2.63;;;10.10;99.90;;;;;;4993331;28;20063;-75
2023/04/24 03:01:51;;;;;;;6.10;3.08;;;10.10;99.90;;;;;;4971385;28;20129;-74
2023/04/24 03:04:52;;;;;;;5.50;2.30;;;10.10;99.90;;;;;;4954923;28;20409;-75
2023/04/24 03:08:07;;;;;;;5.20;2.75;;;10.00;99.90;;;;;;4971561;28;20248;-77
2023/04/24 03:10:43;;;;;;;4.18;2.67;;;10.00;99.90;;;;;;5055257;28;20067;-76
2023/04/24 03:13:51;;;;;;;4.63;3.25;;;10.00;99.90;;;;;;5065149;28;20465;-75
2023/04/24 03:16:22;;;;;;;6.43;3.47;;;10.00;99.90;;;;;;5058087;28;20072;-77
2023/04/24 03:19:49;;;;;;;7.25;3.55;;;10.00;99.90;;;;;;5070655;28;20096;-76
2023/04/24 03:22:47;;;;;;;6.78;3.33;;;10.00;99.90;;;;;;5079007;27;20069;-74
2023/04/24 03:25:42;;;;;;;6.20;3.83;;;10.00;99.90;;;;;;5089647;27;20292;-76
2023/04/24 03:28:19;;;;;;;5.60;3.65;;;9.90;99.90;;;;;;5085709;27;20096;-77
2023/04/24 03:31:31;;;;;;;4.13;3.40;;;9.90;99.90;;;;;;5103053;27;20433;-75
2023/04/24 03:34:24;;;;;;;9.15;4.70;;;9.90;99.90;;;;;;5134338;27;20054;-76
2023/04/24 03:37:17;;;;;;;7.50;4.10;;;9.90;99.90;;;;;;5124962;27;20855;-74
2023/04/24 03:40:23;;;;;;;5.13;3.10;;;9.90;99.90;;;;;;5093809;27;20088;-75
2023/04/24 03:43:04;;;;;;;5.68;2.70;;;9.90;99.90;;;;;;5063300;28;20486;-74
2023/04/24 03:46:09;;;;;;;5.30;2.65;;;10.60;99.90;;;;;;5033166;28;20060;-75
2023/04/24 03:52:15;;;;;;;4.82;2.70;;;9.80;99.90;;;;;;5062803;28;20056;-77
2023/04/24 03:55:12;;;;;;;4.80;2.60;;;9.80;99.90;;;;;;5064583;28;20627;-77
2023/04/24 03:58:07;;;;;;;4.88;3.20;;;9.70;99.90;;;;;;5062538;28;20068;-76
2023/04/24 04:01:13;;;;;;;5.57;2.95;;;9.80;99.90;;;;;;5074884;27;20057;-75
2023/04/24 04:03:51;;;;;;;6.95;4.03;;;9.70;99.90;;;;;;5140866;27;20074;-76
2023/04/24 04:06:48;;;;;;;6.22;3.45;;;9.70;99.90;;;;;;5073609;28;20098;-78
2023/04/24 04:10:08;;;;;;;6.28;2.15;;;9.70;99.90;;;;;;5047598;28;20047;-77
2023/04/24 04:16:24;;;;;;;5.78;2.75;;;9.60;99.90;;;;;;5074343;28;20082;-76
2023/04/24 04:19:26;;;;;;;7.55;2.60;;;9.60;99.90;;;;;;5053180;28;20060;-75
2023/04/24 04:26:07;;;;;;;5.60;2.83;;;9.50;99.90;;;;;;5160249;27;20136;-75
2023/04/24 04:28:34;;;;;;;5.03;3.10;;;9.50;99.90;;;;;;5051013;27;1314588;-78
2023/04/24 04:31:00;;;;;;;7.75;3.90;;;9.50;99.90;;;;;;5095932;27;20524;-78
2023/04/24 04:33:26;;;;;;;10.00;4.20;;;9.50;99.90;;;;;;5113808;27;20047;-73
2023/04/24 04:35:58;;;;;;;8.05;4.75;;;9.50;99.90;;;;;;5098339;27;20068;-77
2023/04/24 04:38:26;;;;;;;7.55;3.60;;;9.50;99.90;;;;;;5092425;27;20174;-79
2023/04/24 04:40:53;;;;;;;6.60;3.65;;;9.40;99.90;;;;;;5092508;27;20059;-76
2023/04/24 04:43:24;;;;;;;6.40;4.03;;;9.40;99.90;;;;;;5046542;27;20158;-76
2023/04/24 04:45:51;;;;;;;6.65;4.20;;;9.10;99.90;;;;;;5086865;27;20046;-75
2023/04/24 04:48:19;;;;;;;7.47;4.03;;;10.60;99.90;;;;;;5101375;27;20054;-75
2023/04/24 04:50:45;;;;;;;7.18;4.10;;;9.40;99.90;;;;;;5080905;27;20047;-75
2023/04/24 04:53:11;;;;;;;5.97;4.05;;;9.40;99.90;;;;;;5066473;27;20055;-76
2023/04/24 04:55:38;;;;;;;7.13;3.17;;;9.40;99.90;;;;;;5075735;27;20039;-76
2023/04/24 04:58:05;;;;;;;6.97;3.15;;;9.40;99.90;;;;;;5070880;27;20122;-75
2023/04/24 05:00:35;;;;;;;5.07;3.15;;;9.40;99.90;;;;;;5099248;27;20039;-76
2023/04/24 05:03:01;;;;;;;4.25;3.40;;;9.40;99.90;;;;;;5093957;27;20163;-77
2023/04/24 05:05:27;;;;;;;7.78;4.05;;;9.40;99.90;;;;;;5094888;27;22036;-79
2023/04/24 05:07:53;;;;;;;5.22;3.78;;;9.40;99.90;;;;;;5084740;27;20292;-77
2023/04/24 05:10:19;;;;;;;9.90;4.00;;;9.40;99.90;;;;;;5082051;27;20058;-79
2023/04/24 05:12:45;;;;;;;6.43;3.78;;;9.50;99.90;;;;;;5094886;27;20043;-77
2023/04/24 05:15:11;;;;;;;5.45;3.20;;;9.50;99.90;;;;;;5081926;27;20046;-77
2023/04/24 05:17:37;;;;;;;4.35;2.58;;;9.50;99.90;;;;;;5061311;27;21106;-77
2023/04/24 05:20:05;;;;;;;5.40;2.55;;;9.50;99.90;;;;;;5077358;27;20127;-78
2023/04/24 05:22:31;;;;;;;4.82;2.33;;;9.60;99.90;;;;;;5079424;27;20509;-76
2023/04/24 05:24:57;;;;;;;4.95;1.85;;;9.50;99.90;;;;;;5064548;27;20053;-75
2023/04/24 05:27:26;;;;;;;4.00;1.73;;;9.50;99.90;;;;;;5085131;27;20047;-76
2023/04/24 05:29:52;;;;;;;4.55;1.67;;;9.50;99.90;;;;;;5069813;27;20047;-76
2023/04/24 05:32:17;;;;;;;4.38;2.00;;;9.50;99.90;;;;;;5064343;27;20102;-76
2023/04/24 05:34:45;;;;;;;6.13;2.50;;;9.50;99.90;;;;;;5056201;27;20123;-76
2023/04/24 05:37:10;;;;;;;6.90;2.60;;;9.50;99.90;;;;;;5064866;27;20478;-76
2023/04/24 05:39:36;;;;;;;6.10;3.10;;;9.50;99.90;;;;;;5076640;27;20094;-78
2023/04/24 05:42:08;;;;;;;7.38;3.38;;;9.50;99.90;;;;;;5079284;27;20690;-77
2023/04/24 05:44:34;;;;;;;9.30;5.45;;;9.50;99.90;;;;;;5072218;27;20075;-76
2023/04/24 05:47:00;;;;;;;12.57;7.22;;;9.50;99.90;;;;;;5053237;27;20562;-79
2023/04/24 05:49:26;;;;;;;13.02;7.05;;;10.60;99.90;;;;;;5079646;27;20458;-80
2023/04/24 05:51:52;;;;;;;13.60;7.13;;;9.50;99.90;;;;;;5067265;27;20088;-77
2023/04/24 05:54:21;;;;;;;13.07;7.00;;;9.40;99.90;;;;;;5080343;27;20584;-77
2023/04/24 05:56:46;;;;;;;14.23;8.30;;;9.50;99.90;;;;;;5061087;27;20050;-76
2023/04/24 05:59:12;;;;;;;17.90;10.52;;;9.50;99.90;;;;;;5076650;27;21370;-77
2023/04/24 06:01:38;;;;;;;20.88;10.20;;;10.30;99.90;;;;;;5047127;27;20391;-79
2023/04/24 06:04:04;;;;;;;18.00;9.40;;;9.40;99.90;;;;;;5053246;27;20126;-78
2023/04/24 06:06:36;;;;;;;15.90;9.18;;;9.40;99.90;;;;;;5066318;27;20051;-77
2023/04/24 06:09:02;;;;;;;20.98;10.43;;;9.40;99.90;;;;;;5065187;27;20054;-76
2023/04/24 06:11:28;;;;;;;20.63;11.05;;;9.40;99.90;;;;;;5062212;27;20665;-76
2023/04/24 06:13:54;;;;;;;20.10;11.05;;;9.40;99.90;;;;;;5085290;27;20101;-76
2023/04/24 06:16:20;;;;;;;22.92;12.13;;;9.30;99.90;;;;;;5064383;27;20166;-75
2023/04/24 06:18:47;;;;;;;22.92;12.52;;;9.30;99.90;;;;;;5083058;27;20331;-78
2023/04/24 06:21:12;;;;;;;22.52;11.75;;;9.30;99.90;;;;;;5065850;27;20058;-77
2023/04/24 06:23:38;;;;;;;23.58;12.07;;;9.20;99.90;;;;;;5084969;27;20047;-75
2023/04/24 06:26:04;;;;;;;20.52;11.40;;;9.10;99.90;;;;;;5067693;27;20469;-76
2023/04/24 06:28:33;;;;;;;18.02;11.13;;;9.10;99.90;;;;;;5055296;27;20061;-78
2023/04/24 06:31:07;;;;;;;20.48;11.25;;;9.10;99.90;;;;;;5063166;27;20062;-76
2023/04/24 06:33:39;;;;;;;20.60;11.82;;;9.10;99.90;;;;;;5054250;27;20122;-76
2023/04/24 06:36:07;;;;;;;18.33;10.80;;;9.10;99.90;;;;;;5064804;27;20047;-75
2023/04/24 06:38:34;;;;;;;18.08;9.98;;;9.10;99.90;;;;;;5061448;27;20044;-78
2023/04/24 06:41:04;;;;;;;15.57;9.10;;;9.00;99.90;;;;;;5082390;27;20040;-77
2023/04/24 06:43:33;;;;;;;12.88;8.48;;;9.00;99.90;;;;;;5070026;27;20051;-77
2023/04/24 06:46:00;;;;;;;15.32;8.60;;;9.00;99.90;;;;;;5084786;27;20473;-76
2023/04/24 06:48:26;;;;;;;13.82;7.55;;;9.00;99.90;;;;;;5049433;27;20058;-78
2023/04/24 06:50:52;;;;;;;15.55;8.20;;;9.00;99.90;;;;;;5077574;27;20050;-79
2023/04/24 06:53:18;;;;;;;14.65;8.25;;;9.00;99.90;;;;;;5050633;27;20043;-76
2023/04/24 06:55:47;;;;;;;13.88;7.70;;;8.90;99.90;;;;;;5064538;27;20124;-76
2023/04/24 06:58:13;;;;;;;12.20;6.95;;;8.80;99.90;;;;;;5080496;27;20134;-76
2023/04/24 07:00:39;;;;;;;10.43;6.45;;;8.80;99.90;;;;;;5067240;27;20111;-77
2023/04/24 07:03:05;;;;;;;11.80;5.88;;;8.80;99.90;;;;;;5067040;27;20337;-76
2023/04/24 07:05:33;;;;;;;13.55;6.45;;;8.80;99.90;;;;;;5066291;27;20039;-77
2023/04/24 07:07:59;;;;;;;12.00;6.22;;;8.80;99.90;;;;;;5063691;27;20495;-76
2023/04/24 07:10:28;;;;;;;11.10;6.55;;;8.80;99.90;;;;;;5063715;27;20050;-76
2023/04/24 07:12:54;;;;;;;13.27;6.47;;;8.90;99.90;;;;;;5050716;27;20071;-77
2023/04/24 07:15:20;;;;;;;11.00;6.03;;;8.90;99.90;;;;;;5049638;27;20063;-76
2023/04/24 07:17:47;;;;;;;11.45;6.15;;;9.00;99.90;;;;;;5082039;27;20580;-77
2023/04/24 07:20:14;;;;;;;12.57;5.82;;;8.90;99.90;;;;;;5077957;27;20059;-78
2023/04/24 07:22:40;;;;;;;10.40;5.85;;;9.00;99.90;;;;;;5050858;27;20093;-75
2023/04/24 07:25:07;;;;;;;13.95;5.38;;;9.00;99.90;;;;;;5081377;27;20040;-75
2023/04/24 07:27:34;;;;;;;15.32;5.68;;;9.10;99.90;;;;;;5077285;27;20361;-78
2023/04/24 07:30:00;;;;;;;13.48;6.78;;;9.10;99.90;;;;;;5080250;27;20047;-76
2023/04/24 07:32:26;;;;;;;13.73;5.97;;;9.20;99.90;;;;;;5071414;27;20042;-77
2023/04/24 07:34:52;;;;;;;10.57;5.25;;;9.30;99.90;;;;;;5080260;27;20051;-78
2023/04/24 07:37:20;;;;;;;13.85;5.03;;;9.30;99.90;;;;;;5061577;27;20036;-79
2023/04/24 07:39:45;;;;;;;13.80;5.38;;;9.30;99.90;;;;;;5053658;28;20046;-76
2023/04/24 07:42:14;;;;;;;10.52;5.40;;;9.30;99.90;;;;;;5045831;27;20427;-78
2023/04/24 07:44:40;;;;;;;10.45;5.03;;;9.30;99.90;;;;;;5079835;27;20046;-76
2023/04/24 07:47:06;;;;;;;10.73;5.25;;;9.40;99.90;;;;;;5048964;28;20040;-78
2023/04/24 07:49:33;;;;;;;8.45;4.55;;;9.40;99.90;;;;;;5062092;27;20054;-76
2023/04/24 07:52:01;;;;;;;13.07;4.75;;;9.40;99.90;;;;;;5081013;27;20056;-77
2023/04/24 07:54:28;;;;;;;8.25;4.07;;;9.50;99.90;;;;;;5096643;27;20066;-77
2023/04/24 07:56:54;;;;;;;6.78;4.53;;;9.50;99.90;;;;;;5065997;27;20062;-76
2023/04/24 07:59:19;;;;;;;8.20;4.32;;;9.70;99.90;;;;;;5080610;27;20043;-77
2023/04/24 08:01:45;;;;;;;7.82;4.10;;;9.70;99.90;;;;;;5077751;27;20039;-77
2023/04/24 08:04:11;;;;;;;11.35;4.85;;;9.80;99.90;;;;;;5046784;27;20046;-76
2023/04/24 08:06:37;;;;;;;12.10;4.10;;;9.80;99.90;;;;;;5079799;28;20688;-76
2023/04/24 08:09:03;;;;;;;7.35;3.28;;;9.90;99.90;;;;;;5081821;27;20101;-77
2023/04/24 08:11:29;;;;;;;11.70;3.83;;;9.90;99.90;;;;;;5067850;27;20126;-78
2023/04/24 08:13:54;;;;;;;10.55;3.75;;;9.90;99.90;;;;;;5098486;27;20485;-75
2023/04/24 08:16:20;;;;;;;10.10;4.20;;;9.90;99.90;;;;;;5077512;28;20051;-76
2023/04/24 08:18:46;;;;;;;9.70;3.78;;;9.90;99.90;;;;;;5081497;28;20043;-77
2023/04/24 08:21:16;;;;;;;11.73;3.75;;;9.90;99.90;;;;;;5067056;28;20138;-78
2023/04/24 08:23:43;;;;;;;9.43;4.13;;;10.00;99.90;;;;;;5079296;28;20050;-75
2023/04/24 08:26:10;;;;;;;10.68;3.60;;;10.00;99.90;;;;;;5079503;28;20126;-78
2023/04/24 08:28:42;;;;;;;8.90;3.80;;;10.10;99.90;;;;;;5050409;28;20095;-75
2023/04/24 08:31:14;;;;;;;11.98;3.88;;;10.10;99.90;;;;;;5053566;28;20050;-75
2023/04/24 08:33:40;;;;;;;11.05;3.97;;;10.10;99.90;;;;;;5079874;28;20051;-76
2023/04/24 08:36:07;;;;;;;14.27;4.15;;;10.00;99.90;;;;;;5077289;28;20112;-77
2023/04/24 08:38:34;;;;;;;16.33;3.70;;;10.00;99.90;;;;;;5081982;28;20088;-78
2023/04/24 08:41:01;;;;;;;13.35;3.28;;;10.00;99.90;;;;;;5063061;28;20129;-78
2023/04/24 08:43:27;;;;;;;15.68;2.88;;;10.00;99.90;;;;;;5076985;28;20079;-76
2023/04/24 08:45:56;;;;;;;9.40;2.90;;;10.10;99.90;;;;;;5065885;28;20204;-78
2023/04/24 08:48:22;;;;;;;11.95;2.80;;;10.10;99.90;;;;;;5065335;28;20264;-77
2023/04/24 08:50:51;;;;;;;7.00;2.30;;;10.10;99.90;;;;;;5070653;28;20064;-76
2023/04/24 08:53:19;;;;;;;15.35;2.58;;;10.00;99.90;;;;;;5056694;28;20167;-75
2023/04/24 08:55:47;;;;;;;13.88;3.08;;;9.90;99.90;;;;;;5051392;28;20048;-77
2023/04/24 08:58:15;;;;;;;10.43;2.95;;;9.90;99.90;;;;;;5042560;28;20044;-75
2023/04/24 09:00:46;;;;;;;11.95;3.00;;;9.90;99.90;;;;;;5043612;28;20035;-75
2023/04/24 09:03:16;;;;;;;12.10;3.05;;;9.80;99.90;;;;;;5058606;28;20509;-77
2023/04/24 09:05:47;;;;;;;8.60;2.55;;;9.80;99.90;;;;;;5050248;28;20147;-74
2023/04/24 09:08:17;;;;;;;9.00;2.55;;;9.80;99.90;;;;;;5065815;28;20056;-76
2023/04/24 09:10:43;;;;;;;10.45;2.53;;;9.80;99.90;;;;;;5054321;28;20071;-75
2023/04/24 09:13:10;;;;;;;9.20;2.65;;;9.80;99.90;;;;;;5066194;28;20656;-76
2023/04/24 09:15:40;;;;;;;9.80;2.53;;;9.80;99.90;;;;;;5052163;28;20067;-76
2023/04/24 09:18:06;;;;;;;8.88;2.38;;;9.90;99.90;;;;;;5071397;28;20056;-77
2023/04/24 09:20:33;;;;;;;11.13;2.45;;;10.00;99.90;;;;;;5064816;28;20145;-75
2023/04/24 09:22:59;;;;;;;12.95;2.58;;;10.00;99.90;;;;;;5052064;28;20047;-77
2023/04/24 09:25:38;;;;;;;14.25;2.95;;;10.10;99.90;;;;;;5069596;28;20836;-78
2023/04/24 09:28:06;;;;;;;7.95;2.58;;;10.10;99.90;;;;;;5074861;28;20044;-75
2023/04/24 09:30:41;;;;;;;12.90;2.60;;;10.00;99.90;;;;;;5062509;28;20547;-76
2023/04/24 09:33:15;;;;;;;11.20;2.35;;;10.00;99.90;;;;;;5071762;28;20571;-75
2023/04/24 09:35:53;;;;;;;8.35;2.35;;;10.00;99.90;;;;;;5059234;28;20044;-77
2023/04/24 09:38:30;;;;;;;12.38;2.65;;;9.90;99.90;;;;;;5065038;28;20450;-75
2023/04/24 09:40:58;;;;;;;11.35;2.20;;;10.00;99.90;;;;;;5065574;28;20052;-76
2023/04/24 09:43:26;;;;;;;7.90;1.90;;;10.10;99.90;;;;;;5064596;28;20056;-77
2023/04/24 09:45:56;;;;;;;7.65;1.77;;;10.10;99.90;;;;;;5083458;28;20044;-75
2023/04/24 09:48:31;;;;;;;9.07;2.13;;;10.20;99.90;;;;;;5057532;28;21540;-75
2023/04/24 09:50:57;;;;;;;9.65;2.00;;;10.20;99.90;;;;;;5055781;28;20151;-75
2023/04/24 09:53:33;;;;;;;9.75;2.47;;;10.20;99.90;;;;;;5067241;28;20104;-75
2023/04/24 09:56:09;;;;;;;12.30;2.28;;;10.30;99.90;;;;;;5071455;28;20050;-75
2023/04/24 09:58:36;;;;;;;9.90;2.83;;;10.30;99.90;;;;;;5055640;28;20055;-76
2023/04/24 10:01:02;;;;;;;5.82;1.73;;;10.30;99.90;;;;;;5060535;28;20036;-76
2023/04/24 10:03:36;;;;;;;7.53;2.00;;;10.40;99.90;;;;;;5065623;28;20598;-76
2023/04/24 10:06:08;;;;;;;7.32;1.92;;;10.30;99.90;;;;;;5057596;28;20363;-78
2023/04/24 10:08:35;;;;;;;7.38;2.28;;;10.40;99.90;;;;;;5059495;28;20098;-76
2023/04/24 10:11:01;;;;;;;7.57;2.17;;;10.40;99.90;;;;;;5047285;28;20052;-76
2023/04/24 10:13:33;;;;;;;7.07;1.98;;;10.40;99.90;;;;;;5045175;28;20315;-76
2023/04/24 10:16:01;;;;;;;11.68;2.20;;;10.40;99.90;;;;;;5033371;28;20067;-76
2023/04/24 10:18:27;;;;;;;8.32;1.88;;;10.20;99.90;;;;;;5062890;28;20052;-76
2023/04/24 10:20:57;;;;;;;8.85;2.10;;;10.10;99.90;;;;;;5075658;28;20055;-78
2023/04/24 10:23:25;;;;;;;11.23;1.98;;;9.90;99.90;;;;;;5057971;28;20154;-77
2023/04/24 10:25:53;;;;;;;9.23;1.80;;;9.70;99.90;;;;;;5031459;28;20044;-78
2023/04/24 10:28:26;;;;;;;6.57;1.60;;;9.60;99.90;;;;;;5058034;28;20498;-75
2023/04/24 10:30:57;;;;;;;6.45;1.60;;;9.70;99.90;;;;;;5034100;28;20420;-77
2023/04/24 10:33:23;;;;;;;5.55;1.58;;;10.60;99.90;;;;;;5048309;28;20374;-77
2023/04/24 10:35:52;;;;;;;5.40;1.75;;;9.70;99.90;;;;;;5059192;28;20048;-76
2023/04/24 10:38:24;;;;;;;4.88;1.52;;;9.70;99.90;;;;;;5061463;28;20094;-75
2023/04/24 10:40:51;;;;;;;5.65;1.30;;;9.80;99.90;;;;;;5062175;28;21169;-77
2023/04/24 10:43:18;;;;;;;4.65;1.80;;;9.80;99.90;;;;;;5064257;28;20067;-77
2023/04/24 10:46:04;;;;;;;4.55;1.38;;;9.80;99.90;;;;;;5061994;28;20548;-75
2023/04/24 10:48:32;;;;;;;3.65;1.75;;;9.90;99.90;;;;;;5056682;28;20101;-75
2023/04/24 10:50:58;;;;;;;4.78;1.77;;;10.00;99.90;;;;;;5031191;28;20390;-76
2023/04/24 10:53:29;;;;;;;4.78;1.50;;;10.10;99.90;;;;;;5060992;28;20482;-76
2023/04/24 10:56:18;;;;;;;4.93;1.58;;;10.30;99.90;;;;;;5047073;28;20367;-76
2023/04/24 10:58:52;;;;;;;4.72;1.20;;;10.40;99.90;;;;;;5064754;28;20040;-76
2023/04/24 11:01:32;;;;;;;4.00;1.30;;;10.50;99.90;;;;;;5058067;28;20089;-76
2023/04/24 11:04:02;;;;;;;9.02;1.48;;;10.60;99.90;;;;;;5054711;28;20048;-76
2023/04/24 11:06:36;;;;;;;4.40;1.10;;;10.80;99.90;;;;;;5044675;28;20282;-78
2023/04/24 11:09:16;;;;;;;6.90;1.50;;;11.00;99.90;;;;;;5060928;28;20422;-76
2023/04/24 11:11:46;;;;;;;4.50;1.60;;;11.10;99.90;;;;;;5048971;28;20142;-76
2023/04/24 11:14:16;;;;;;;8.73;1.73;;;11.30;99.90;;;;;;5056978;28;20062;-77
2023/04/24 11:16:44;;;;;;;12.00;2.38;;;11.40;99.90;;;;;;5046977;28;20051;-78
2023/04/24 11:19:20;;;;;;;6.28;1.80;;;11.30;99.90;;;;;;5060933;28;20127;-76
2023/04/24 11:22:01;;;;;;;6.20;1.40;;;11.40;99.90;;;;;;5056585;28;20086;-76
2023/04/24 11:24:50;;;;;;;7.10;1.13;;;11.30;99.90;;;;;;5057276;28;20051;-78
2023/04/24 11:27:19;;;;;;;8.70;2.00;;;11.10;99.90;;;;;;5063758;28;20090;-76
2023/04/24 11:29:50;;;;;;;4.75;1.08;;;11.00;99.90;;;;;;5056938;28;20146;-77
2023/04/24 11:32:26;;;;;;;6.15;1.63;;;10.90;99.90;;;;;;5065663;28;20140;-75
2023/04/24 11:34:57;;;;;;;5.72;1.55;;;11.00;99.90;;;;;;5040104;28;20052;-76
2023/04/24 11:37:26;;;;;;;7.40;1.60;;;11.20;99.90;;;;;;5065318;28;20054;-77
2023/04/24 11:39:58;;;;;;;5.53;1.40;;;11.30;99.90;;;;;;5056116;28;20047;-77
2023/04/24 11:42:25;;;;;;;4.13;1.20;;;11.40;99.90;;;;;;5042839;28;20054;-77
2023/04/24 11:44:55;;;;;;;4.65;1.58;;;11.50;99.90;;;;;;5049102;28;20155;-75
2023/04/24 11:47:41;;;;;;;5.20;1.30;;;11.60;99.90;;;;;;5045336;28;20415;-76
2023/04/24 11:50:09;;;;;;;;;;;11.60;99.90;;;;;;5050879;28;20058;-77
2023/04/24 11:52:40;;;;;;;5.97;1.20;;;11.60;99.90;;;;;;5060911;28;20286;-78
2023/04/24 11:55:27;;;;;;;2.60;1.08;;;11.60;99.90;;;;;;5047360;28;20136;-77
2023/04/24 11:57:56;;;;;;;5.07;0.95;;;11.60;99.90;;;;;;5065969;28;20044;-75
2023/04/24 12:00:28;;;;;;;5.30;1.70;;;11.70;99.90;;;;;;5057799;28;20039;-76
2023/04/24 12:03:11;;;;;;;4.97;1.30;;;11.60;99.90;;;;;;5057984;28;20367;-78
2023/04/24 12:05:38;;;;;;;3.60;1.20;;;11.50;99.90;;;;;;5046221;28;20050;-78
2023/04/24 12:08:06;;;;;;;2.65;0.90;;;11.30;99.90;;;;;;5057027;28;20070;-76
2023/04/24 12:10:34;;;;;;;2.55;1.00;;;11.10;99.90;;;;;;5058563;28;20075;-76
2023/04/24 12:13:00;;;;;;;6.00;1.10;;;11.00;99.90;;;;;;5040242;28;20040;-77
2023/04/24 12:15:26;;;;;;;5.45;1.10;;;10.90;99.90;;;;;;5055413;28;20966;-77
2023/04/24 12:17:53;;;;;;;7.43;1.40;;;10.90;99.90;;;;;;5061167;28;20204;-76
2023/04/24 12:20:31;;;;;;;3.67;1.13;;;11.10;99.90;;;;;;5031191;28;20051;-78
2023/04/24 12:22:59;;;;;;;3.60;0.90;;;11.20;99.90;;;;;;5041290;28;20040;-77
2023/04/24 12:25:29;;;;;;;4.28;1.10;;;11.40;99.90;;;;;;5054601;28;20172;-77
2023/04/24 12:28:04;;;;;;;5.30;1.38;;;11.40;99.90;;;;;;5074816;28;20052;-77
2023/04/24 12:30:32;;;;;;;3.65;1.30;;;11.60;99.90;;;;;;5045760;28;20869;-78
2023/04/24 12:33:00;;;;;;;5.57;2.03;;;11.60;99.90;;;;;;5038422;28;20387;-77
2023/04/24 12:35:31;;;;;;;7.32;1.98;;;11.70;99.90;;;;;;5054100;28;20039;-77
2023/04/24 12:38:08;;;;;;;8.88;2.15;;;11.70;99.90;;;;;;5056476;28;20051;-78
2023/04/24 12:40:34;;;;;;;8.05;2.10;;;11.60;99.90;;;;;;5043685;28;20742;-76
2023/04/24 12:43:00;;;;;;;8.25;1.92;;;11.40;99.90;;;;;;5061166;28;20048;-78
2023/04/24 12:45:27;;;;;;;9.15;2.20;;;11.30;99.90;;;;;;5063786;28;20076;-76
2023/04/24 12:47:53;;;;;;;12.25;2.00;;;11.20;99.90;;;;;;5061132;28;20052;-76
2023/04/24 12:50:20;;;;;;;11.23;2.20;;;11.00;99.90;;;;;;5064759;28;20048;-77
2023/04/24 12:52:46;;;;;;;8.95;2.10;;;11.00;99.90;;;;;;5076113;28;20051;-76
2023/04/24 12:55:12;;;;;;;11.20;2.20;;;10.90;99.90;;;;;;5063851;28;20934;-77
2023/04/24 12:57:40;;;;;;;8.63;2.10;;;10.80;99.90;;;;;;5042261;28;20173;-76
2023/04/24 13:00:08;;;;;;;10.10;2.35;;;10.70;99.90;;;;;;5057816;28;20044;-77
2023/04/24 13:02:36;;;;;;;11.20;2.60;;;10.70;99.90;;;;;;5059644;28;20101;-77
2023/04/24 13:05:05;;;;;;;13.18;2.72;;;10.60;99.90;;;;;;5050285;28;20043;-77
2023/04/24 13:07:31;;;;;;;13.32;2.47;;;10.50;99.90;;;;;;5067990;28;20098;-75
2023/04/24 13:10:00;;;;;;;7.40;2.00;;;10.50;99.90;;;;;;5057007;28;20047;-77
2023/04/24 13:12:26;;;;;;;12.35;2.60;;;10.20;99.90;;;;;;5067754;28;20105;-76
2023/04/24 13:14:52;;;;;;;9.60;2.20;;;10.10;99.90;;;;;;5059640;28;20048;-77
2023/04/24 13:17:24;;;;;;;7.85;1.88;;;10.00;99.90;;;;;;5060136;28;20059;-75
2023/04/24 13:19:51;;;;;;;8.05;2.00;;;10.00;99.90;;;;;;5077476;28;20056;-77
2023/04/24 13:22:21;;;;;;;11.25;2.67;;;10.00;99.90;;;;;;5057647;28;20040;-76
2023/04/24 13:24:48;;;;;;;8.23;2.17;;;10.00;99.90;;;;;;5065389;28;20055;-76
2023/04/24 13:27:14;;;;;;;13.93;2.47;;;9.90;99.90;;;;;;5062829;28;20113;-76
2023/04/24 13:29:43;;;;;;;11.68;2.50;;;9.90;99.90;;;;;;5077908;28;20519;-76
2023/04/24 13:32:09;;;;;;;8.55;2.25;;;9.80;99.90;;;;;;5049718;28;20556;-76
2023/04/24 13:34:38;;;;;;;7.43;2.00;;;9.70;99.90;;;;;;5057223;28;20542;-76
2023/04/24 13:37:04;;;;;;;6.68;2.10;;;9.40;99.90;;;;;;5033847;28;20054;-77
2023/04/24 13:39:32;;;;;;;10.80;2.60;;;9.60;99.90;;;;;;5059574;28;20441;-76
2023/04/24 13:41:58;;;;;;;12.15;2.60;;;9.70;99.90;;;;;;5051394;28;20131;-76
2023/04/24 13:44:24;;;;;;;15.73;3.00;;;9.70;99.90;;;;;;5051043;28;20252;-76
2023/04/24 13:46:54;;;;;;;10.60;2.10;;;9.80;99.90;;;;;;5049945;28;20043;-77
2023/04/24 13:49:21;;;;;;;10.45;2.67;;;9.80;99.90;;;;;;5060552;28;20052;-76